INN weather

Innsbruck Airport
Innsbruck, Tyrol, Austria

Public forecast

Using degrees Celsius for public forecast. Weather courtesy of forecast.io.

Current aviation weather report (METAR) for Innsbruck Airport

Retrieved 2019/10/22 09:20 UTC (23 minutes ago):

LOWI 220920Z 27009KT CAVOK 16/11 Q1023 NOSIG

Aviation forecast (TAF) for Innsbruck Airport

Retrieved 2019/10/22 06:21 UTC (3 hours ago):

TAF LOWI 220515Z 2206/2306 27006KT 9999 FEW070 SCT100 BKN300 TX22/2214Z TN07/2305Z TEMPO 2211/2218 11012G25KT